sensor_id;sensor_type;location;lat;lon;timestamp;pressure;altitude;pressure_sealevel;temperature;humidity
9721;BME280;4899;42.644;23.366;2022-10-15T00:02:13;94543.19;;;11.81;100.00
9721;BME280;4899;42.644;23.366;2022-10-15T00:04:40;94555.78;;;11.83;100.00
9721;BME280;4899;42.644;23.366;2022-10-15T00:07:08;94551.38;;;11.75;100.00
9721;BME280;4899;42.644;23.366;2022-10-15T00:09:35;94538.34;;;11.71;100.00
9721;BME280;4899;42.644;23.366;2022-10-15T00:12:01;94529.25;;;11.65;100.00
9721;BME280;4899;42.644;23.366;2022-10-15T00:14:28;94549.09;;;11.73;100.00
9721;BME280;4899;42.644;23.366;2022-10-15T00:16:55;94532.28;;;11.50;100.00
9721;BME280;4899;42.644;23.366;2022-10-15T00:21:55;94543.78;;;11.69;100.00
9721;BME280;4899;42.644;23.366;2022-10-15T00:24:22;94540.59;;;11.64;100.00
9721;BME280;4899;42.644;23.366;2022-10-15T00:26:49;94534.25;;;11.61;100.00
9721;BME280;4899;42.644;23.366;2022-10-15T00:29:16;94537.88;;;11.60;100.00
9721;BME280;4899;42.644;23.366;2022-10-15T00:31:42;94532.88;;;11.55;100.00
9721;BME280;4899;42.644;23.366;2022-10-15T00:34:09;94528.50;;;11.56;100.00
9721;BME280;4899;42.644;23.366;2022-10-15T00:36:36;94529.25;;;11.56;100.00
9721;BME280;4899;42.644;23.366;2022-10-15T00:39:05;94511.22;;;11.39;100.00
9721;BME280;4899;42.644;23.366;2022-10-15T00:41:34;94510.78;;;11.46;100.00
9721;BME280;4899;42.644;23.366;2022-10-15T00:44:42;94525.31;;;11.59;100.00
9721;BME280;4899;42.644;23.366;2022-10-15T00:46:50;94520.00;;;11.55;100.00
9721;BME280;4899;42.644;23.366;2022-10-15T00:49:21;94514.09;;;11.55;100.00
9721;BME280;4899;42.644;23.366;2022-10-15T00:51:53;94510.31;;;11.52;100.00
9721;BME280;4899;42.644;23.366;2022-10-15T00:57:20;94504.84;;;11.54;100.00
9721;BME280;4899;42.644;23.366;2022-10-15T00:59:51;94501.69;;;11.48;100.00
9721;BME280;4899;42.644;23.366;2022-10-15T01:02:20;94492.31;;;11.44;100.00
9721;BME280;4899;42.644;23.366;2022-10-15T01:04:47;94502.28;;;11.54;100.00
9721;BME280;4899;42.644;23.366;2022-10-15T01:07:14;94504.72;;;11.50;100.00
9721;BME280;4899;42.644;23.366;2022-10-15T01:09:41;94496.22;;;11.50;100.00
9721;BME280;4899;42.644;23.366;2022-10-15T01:12:13;94484.72;;;11.38;100.00
9721;BME280;4899;42.644;23.366;2022-10-15T01:14:50;94505.00;;;11.57;100.00
9721;BME280;4899;42.644;23.366;2022-10-15T01:17:25;94509.56;;;11.52;100.00
9721;BME280;4899;42.644;23.366;2022-10-15T01:20:21;94525.94;;;11.47;100.00
9721;BME280;4899;42.644;23.366;2022-10-15T01:23:05;94504.25;;;11.48;100.00
9721;BME280;4899;42.644;23.366;2022-10-15T01:25:45;94506.97;;;11.52;100.00
9721;BME280;4899;42.644;23.366;2022-10-15T01:28:27;94505.78;;;11.49;100.00
9721;BME280;4899;42.644;23.366;2022-10-15T01:31:02;94497.13;;;11.54;100.00
9721;BME280;4899;42.644;23.366;2022-10-15T01:33:36;94506.53;;;11.50;100.00
9721;BME280;4899;42.644;23.366;2022-10-15T01:36:14;94496.69;;;11.52;100.00
9721;BME280;4899;42.644;23.366;2022-10-15T01:38:51;94499.53;;;11.59;100.00
9721;BME280;4899;42.644;23.366;2022-10-15T01:41:25;94495.78;;;11.48;100.00
9721;BME280;4899;42.644;23.366;2022-10-15T01:43:58;94507.25;;;11.59;100.00
9721;BME280;4899;42.644;23.366;2022-10-15T01:46:32;94492.31;;;11.44;100.00
9721;BME280;4899;42.644;23.366;2022-10-15T01:49:03;94510.91;;;11.58;100.00
9721;BME280;4899;42.644;23.366;2022-10-15T01:51:32;94521.06;;;11.63;100.00
9721;BME280;4899;42.644;23.366;2022-10-15T01:54:01;94503.19;;;11.58;100.00
9721;BME280;4899;42.644;23.366;2022-10-15T01:56:31;94508.78;;;11.51;100.00
9721;BME280;4899;42.644;23.366;2022-10-15T01:59:00;94481.53;;;11.50;100.00
9721;BME280;4899;42.644;23.366;2022-10-15T02:01:29;94505.00;;;11.66;100.00
9721;BME280;4899;42.644;23.366;2022-10-15T02:03:56;94503.94;;;11.67;100.00
9721;BME280;4899;42.644;23.366;2022-10-15T02:06:26;94509.22;;;11.62;100.00
9721;BME280;4899;42.644;23.366;2022-10-15T02:09:02;94505.00;;;11.66;100.00
9721;BME280;4899;42.644;23.366;2022-10-15T02:11:49;94505.75;;;11.66;100.00
9721;BME280;4899;42.644;23.366;2022-10-15T02:14:25;94502.13;;;11.67;100.00
9721;BME280;4899;42.644;23.366;2022-10-15T02:16:57;94511.97;;;11.74;100.00
9721;BME280;4899;42.644;23.366;2022-10-15T02:19:30;94510.16;;;11.66;100.00
9721;BME280;4899;42.644;23.366;2022-10-15T02:22:04;94503.94;;;11.67;100.00
9721;BME280;4899;42.644;23.366;2022-10-15T02:24:34;94495.91;;;11.60;100.00
9721;BME280;4899;42.644;23.366;2022-10-15T02:27:03;94499.69;;;11.54;100.00
9721;BME280;4899;42.644;23.366;2022-10-15T02:29:34;94509.22;;;11.62;100.00
9721;BME280;4899;42.644;23.366;2022-10-15T02:32:05;94498.22;;;11.44;100.00
9721;BME280;4899;42.644;23.366;2022-10-15T02:34:33;94487.59;;;11.46;100.00
9721;BME280;4899;42.644;23.366;2022-10-15T02:37:03;94506.19;;;11.60;100.00
9721;BME280;4899;42.644;23.366;2022-10-15T02:39:31;94507.44;;;11.54;100.00
9721;BME280;4899;42.644;23.366;2022-10-15T02:42:00;94511.97;;;11.57;100.00
9721;BME280;4899;42.644;23.366;2022-10-15T02:44:27;94497.16;;;11.45;100.00
9721;BME280;4899;42.644;23.366;2022-10-15T02:46:54;94473.22;;;11.10;100.00
9721;BME280;4899;42.644;23.366;2022-10-15T02:49:24;94505.00;;;11.49;100.00
9721;BME280;4899;42.644;23.366;2022-10-15T02:51:51;94504.56;;;11.55;100.00
9721;BME280;4899;42.644;23.366;2022-10-15T02:54:18;94502.59;;;11.52;100.00
9721;BME280;4899;42.644;23.366;2022-10-15T02:56:44;94509.84;;;11.59;100.00
9721;BME280;4899;42.644;23.366;2022-10-15T02:59:11;94509.22;;;11.62;100.00
9721;BME280;4899;42.644;23.366;2022-10-15T03:01:38;94505.00;;;11.57;100.00
9721;BME280;4899;42.644;23.366;2022-10-15T03:04:05;94501.53;;;11.53;100.00
9721;BME280;4899;42.644;23.366;2022-10-15T03:06:33;94501.22;;;11.46;100.00
9721;BME280;4899;42.644;23.366;2022-10-15T03:09:00;94503.03;;;11.37;100.00
9721;BME280;4899;42.644;23.366;2022-10-15T03:11:27;94504.41;;;11.34;100.00
9721;BME280;4899;42.644;23.366;2022-10-15T03:13:54;94466.53;;;11.09;100.00
9721;BME280;4899;42.644;23.366;2022-10-15T03:19:24;94499.25;;;11.34;100.00
9721;BME280;4899;42.644;23.366;2022-10-15T03:24:50;94504.09;;;11.36;100.00
9721;BME280;4899;42.644;23.366;2022-10-15T03:27:17;94507.13;;;11.38;100.00
9721;BME280;4899;42.644;23.366;2022-10-15T03:29:44;94497.28;;;11.31;100.00
9721;BME280;4899;42.644;23.366;2022-10-15T03:32:11;94463.97;;;11.09;100.00
9721;BME280;4899;42.644;23.366;2022-10-15T03:34:38;94506.06;;;11.39;100.00
9721;BME280;4899;42.644;23.366;2022-10-15T03:37:04;94516.09;;;11.40;100.00
9721;BME280;4899;42.644;23.366;2022-10-15T03:39:31;94518.19;;;11.30;100.00
9721;BME280;4899;42.644;23.366;2022-10-15T03:41:59;94507.75;;;11.26;100.00
9721;BME280;4899;42.644;23.366;2022-10-15T03:44:26;94505.75;;;11.15;100.00
9721;BME280;4899;42.644;23.366;2022-10-15T03:50:13;94513.66;;;11.01;100.00
9721;BME280;4899;42.644;23.366;2022-10-15T03:52:40;94501.97;;;10.95;100.00
9721;BME280;4899;42.644;23.366;2022-10-15T03:55:07;94496.34;;;10.67;100.00
9721;BME280;4899;42.644;23.366;2022-10-15T03:57:35;94485.59;;;10.73;100.00
9721;BME280;4899;42.644;23.366;2022-10-15T04:00:04;94507.25;;;10.90;100.00
9721;BME280;4899;42.644;23.366;2022-10-15T04:02:32;94514.81;;;10.86;100.00
9721;BME280;4899;42.644;23.366;2022-10-15T04:04:59;94518.16;;;10.87;100.00
9721;BME280;4899;42.644;23.366;2022-10-15T04:07:27;94521.47;;;10.87;100.00
9721;BME280;4899;42.644;23.366;2022-10-15T04:09:54;94509.97;;;10.76;100.00
9721;BME280;4899;42.644;23.366;2022-10-15T04:12:21;94501.50;;;10.67;100.00
9721;BME280;4899;42.644;23.366;2022-10-15T04:14:47;94509.75;;;10.55;100.00
9721;BME280;4899;42.644;23.366;2022-10-15T04:20:44;94523.44;;;10.82;100.00
9721;BME280;4899;42.644;23.366;2022-10-15T04:23:11;94513.16;;;10.82;100.00
9721;BME280;4899;42.644;23.366;2022-10-15T04:25:38;94516.78;;;10.81;100.00
9721;BME280;4899;42.644;23.366;2022-10-15T04:28:05;94519.38;;;10.81;100.00
9721;BME280;4899;42.644;23.366;2022-10-15T04:30:32;94513.31;;;10.76;100.00
9721;BME280;4899;42.644;23.366;2022-10-15T04:32:59;94515.88;;;10.76;100.00
9721;BME280;4899;42.644;23.366;2022-10-15T04:35:26;94522.53;;;10.77;100.00
9721;BME280;4899;42.644;23.366;2022-10-15T04:41:00;94518.84;;;10.61;100.00
9721;BME280;4899;42.644;23.366;2022-10-15T04:43:27;94528.53;;;10.64;100.00
9721;BME280;4899;42.644;23.366;2022-10-15T04:45:56;94520.06;;;10.55;100.00
9721;BME280;4899;42.644;23.366;2022-10-15T04:51:59;94521.09;;;10.45;100.00
9721;BME280;4899;42.644;23.366;2022-10-15T04:54:26;94533.97;;;10.54;100.00
9721;BME280;4899;42.644;23.366;2022-10-15T04:56:53;94548.50;;;10.50;100.00
9721;BME280;4899;42.644;23.366;2022-10-15T04:59:19;94536.38;;;10.42;100.00
9721;BME280;4899;42.644;23.366;2022-10-15T05:03:13;94535.50;;;10.55;100.00
9721;BME280;4899;42.644;23.366;2022-10-15T05:05:40;94542.59;;;10.58;100.00
9721;BME280;4899;42.644;23.366;2022-10-15T05:08:07;94548.66;;;10.62;100.00
9721;BME280;4899;42.644;23.366;2022-10-15T05:10:34;94547.28;;;10.56;100.00
9721;BME280;4899;42.644;23.366;2022-10-15T05:45:08;94577.03;;;12.35;100.00
9721;BME280;4899;42.644;23.366;2022-10-15T05:47:35;94583.00;;;12.27;100.00
9721;BME280;4899;42.644;23.366;2022-10-15T05:50:02;94590.88;;;12.30;100.00
9721;BME280;4899;42.644;23.366;2022-10-15T05:52:29;94589.84;;;12.23;100.00
9721;BME280;4899;42.644;23.366;2022-10-15T05:54:56;94592.84;;;12.25;100.00
9721;BME280;4899;42.644;23.366;2022-10-15T05:57:23;94593.75;;;12.29;100.00
9721;BME280;4899;42.644;23.366;2022-10-15T05:59:50;94592.53;;;12.35;100.00
9721;BME280;4899;42.644;23.366;2022-10-15T06:02:18;94595.84;;;12.44;100.00
9721;BME280;4899;42.644;23.366;2022-10-15T06:04:46;94604.47;;;12.48;100.00
9721;BME280;4899;42.644;23.366;2022-10-15T06:07:13;94595.19;;;12.65;100.00
9721;BME280;4899;42.644;23.366;2022-10-15T06:12:23;94597.03;;;12.85;100.00
9721;BME280;4899;42.644;23.366;2022-10-15T06:14:50;94598.97;;;12.97;100.00
9721;BME280;4899;42.644;23.366;2022-10-15T06:17:16;94604.84;;;13.06;100.00
9721;BME280;4899;42.644;23.366;2022-10-15T06:19:43;94608.00;;;13.11;100.00
9721;BME280;4899;42.644;23.366;2022-10-15T06:22:10;94611.81;;;13.14;100.00
9721;BME280;4899;42.644;23.366;2022-10-15T06:24:37;94584.56;;;12.96;100.00
9721;BME280;4899;42.644;23.366;2022-10-15T06:27:04;94611.81;;;13.14;100.00
9721;BME280;4899;42.644;23.366;2022-10-15T06:29:32;94619.84;;;13.12;100.00
9721;BME280;4899;42.644;23.366;2022-10-15T06:31:59;94618.31;;;13.11;100.00
9721;BME280;4899;42.644;23.366;2022-10-15T06:34:26;94621.53;;;13.08;100.00
9721;BME280;4899;42.644;23.366;2022-10-15T06:50:16;94615.31;;;13.18;100.00
9721;BME280;4899;42.644;23.366;2022-10-15T06:52:43;94628.53;;;13.08;100.00
9721;BME280;4899;42.644;23.366;2022-10-15T06:57:36;94632.59;;;12.79;100.00
9721;BME280;4899;42.644;23.366;2022-10-15T07:00:03;94611.13;;;12.58;100.00
9721;BME280;4899;42.644;23.366;2022-10-15T07:02:30;94646.63;;;12.61;100.00
9721;BME280;4899;42.644;23.366;2022-10-15T07:04:57;94629.50;;;12.56;100.00
9721;BME280;4899;42.644;23.366;2022-10-15T07:07:24;94635.25;;;12.62;100.00
9721;BME280;4899;42.644;23.366;2022-10-15T07:09:51;94628.75;;;12.56;100.00
9721;BME280;4899;42.644;23.366;2022-10-15T07:15:24;94636.13;;;12.75;100.00
9721;BME280;4899;42.644;23.366;2022-10-15T07:17:53;94619.91;;;12.66;100.00
9721;BME280;4899;42.644;23.366;2022-10-15T07:23:04;94652.06;;;13.15;100.00
9721;BME280;4899;42.644;23.366;2022-10-15T07:28:24;94632.66;;;13.59;100.00
9721;BME280;4899;42.644;23.366;2022-10-15T07:30:52;94641.13;;;13.68;100.00
9721;BME280;4899;42.644;23.366;2022-10-15T07:33:19;94642.31;;;13.92;100.00
9721;BME280;4899;42.644;23.366;2022-10-15T07:35:45;94645.59;;;14.01;100.00
9721;BME280;4899;42.644;23.366;2022-10-15T07:38:12;94640.72;;;13.99;100.00
9721;BME280;4899;42.644;23.366;2022-10-15T07:43:29;94646.97;;;14.31;100.00
9721;BME280;4899;42.644;23.366;2022-10-15T07:45:56;94636.59;;;14.19;100.00
9721;BME280;4899;42.644;23.366;2022-10-15T07:48:23;94638.44;;;14.19;100.00
9721;BME280;4899;42.644;23.366;2022-10-15T07:50:53;94652.91;;;14.32;100.00
9721;BME280;4899;42.644;23.366;2022-10-15T07:53:20;94654.53;;;14.36;100.00
9721;BME280;4899;42.644;23.366;2022-10-15T07:55:47;94654.75;;;14.31;100.00
9721;BME280;4899;42.644;23.366;2022-10-15T07:58:14;94651.94;;;14.24;100.00
9721;BME280;4899;42.644;23.366;2022-10-15T08:00:42;94642.00;;;14.26;100.00
9721;BME280;4899;42.644;23.366;2022-10-15T08:03:09;94656.34;;;14.44;100.00
9721;BME280;4899;42.644;23.366;2022-10-15T08:05:35;94638.56;;;14.34;100.00
9721;BME280;4899;42.644;23.366;2022-10-15T08:08:02;94657.03;;;14.66;100.00
9721;BME280;4899;42.644;23.366;2022-10-15T08:10:29;94648.50;;;14.77;100.00
9721;BME280;4899;42.644;23.366;2022-10-15T08:12:56;94656.81;;;14.83;100.00
9721;BME280;4899;42.644;23.366;2022-10-15T08:15:23;94657.78;;;14.78;100.00
9721;BME280;4899;42.644;23.366;2022-10-15T08:17:51;94632.13;;;14.73;100.00
9721;BME280;4899;42.644;23.366;2022-10-15T08:20:18;94652.44;;;14.96;100.00
9721;BME280;4899;42.644;23.366;2022-10-15T08:22:45;94646.50;;;14.95;100.00
9721;BME280;4899;42.644;23.366;2022-10-15T08:25:11;94647.22;;;14.84;100.00
9721;BME280;4899;42.644;23.366;2022-10-15T08:27:38;94625.75;;;14.71;100.00
9721;BME280;4899;42.644;23.366;2022-10-15T08:30:06;94640.78;;;14.90;100.00
9721;BME280;4899;42.644;23.366;2022-10-15T08:32:33;94630.81;;;14.80;100.00
9721;BME280;4899;42.644;23.366;2022-10-15T08:35:01;94639.78;;;14.82;100.00
9721;BME280;4899;42.644;23.366;2022-10-15T08:37:28;94636.34;;;14.90;100.00
9721;BME280;4899;42.644;23.366;2022-10-15T08:39:55;94634.19;;;14.92;100.00
9721;BME280;4899;42.644;23.366;2022-10-15T08:42:26;94604.50;;;14.77;100.00
9721;BME280;4899;42.644;23.366;2022-10-15T08:44:56;94618.09;;;14.99;100.00
9721;BME280;4899;42.644;23.366;2022-10-15T08:47:28;94639.03;;;15.06;100.00
9721;BME280;4899;42.644;23.366;2022-10-15T08:49:57;94635.16;;;15.12;100.00
9721;BME280;4899;42.644;23.366;2022-10-15T08:52:34;94632.84;;;15.35;100.00
9721;BME280;4899;42.644;23.366;2022-10-15T08:55:08;94568.97;;;15.02;100.00
9721;BME280;4899;42.644;23.366;2022-10-15T08:57:38;94604.09;;;15.52;100.00
9721;BME280;4899;42.644;23.366;2022-10-15T09:00:12;94620.53;;;15.68;100.00
9721;BME280;4899;42.644;23.366;2022-10-15T09:02:46;94632.78;;;15.84;100.00
9721;BME280;4899;42.644;23.366;2022-10-15T09:05:31;94608.50;;;15.76;100.00
9721;BME280;4899;42.644;23.366;2022-10-15T09:08:13;94618.53;;;15.90;100.00
9721;BME280;4899;42.644;23.366;2022-10-15T09:10:46;94645.47;;;16.13;100.00
9721;BME280;4899;42.644;23.366;2022-10-15T09:13:19;94633.50;;;16.24;100.00
9721;BME280;4899;42.644;23.366;2022-10-15T09:15:49;94607.25;;;16.42;100.00
9721;BME280;4899;42.644;23.366;2022-10-15T09:18:21;94640.81;;;16.78;100.00
9721;BME280;4899;42.644;23.366;2022-10-15T09:20:49;94636.13;;;16.68;95.28
9721;BME280;4899;42.644;23.366;2022-10-15T09:23:20;94646.84;;;16.82;93.57
9721;BME280;4899;42.644;23.366;2022-10-15T09:25:55;94639.56;;;16.88;96.62
9721;BME280;4899;42.644;23.366;2022-10-15T09:28:28;94631.50;;;16.77;93.04
9721;BME280;4899;42.644;23.366;2022-10-15T09:30:58;94633.34;;;16.77;95.72
9721;BME280;4899;42.644;23.366;2022-10-15T09:33:32;94636.03;;;16.80;100.00
9721;BME280;4899;42.644;23.366;2022-10-15T09:36:10;94632.84;;;17.03;100.00
9721;BME280;4899;42.644;23.366;2022-10-15T09:38:48;94613.41;;;16.97;98.57
9721;BME280;4899;42.644;23.366;2022-10-15T09:43:37;94633.09;;;16.98;91.21
9721;BME280;4899;42.644;23.366;2022-10-15T09:46:07;94619.75;;;16.99;88.13
9721;BME280;4899;42.644;23.366;2022-10-15T09:51:23;94599.50;;;16.89;88.34
9721;BME280;4899;42.644;23.366;2022-10-15T09:53:58;94618.38;;;17.37;90.13
9721;BME280;4899;42.644;23.366;2022-10-15T09:56:31;94618.78;;;17.58;85.45
9721;BME280;4899;42.644;23.366;2022-10-15T09:59:02;94616.47;;;17.88;82.30
9721;BME280;4899;42.644;23.366;2022-10-15T10:01:30;94608.28;;;18.09;80.69
9721;BME280;4899;42.644;23.366;2022-10-15T10:04:11;94619.94;;;18.15;77.67
9721;BME280;4899;42.644;23.366;2022-10-15T10:06:46;94602.41;;;17.93;78.26
9721;BME280;4899;42.644;23.366;2022-10-15T10:09:17;94625.97;;;17.80;81.65
9721;BME280;4899;42.644;23.366;2022-10-15T10:11:48;94626.72;;;17.81;76.86
9721;BME280;4899;42.644;23.366;2022-10-15T10:14:23;94618.09;;;17.96;74.73
9721;BME280;4899;42.644;23.366;2022-10-15T10:17:13;94620.72;;;17.96;72.05
9721;BME280;4899;42.644;23.366;2022-10-15T10:19:41;94628.88;;;17.95;72.49
9721;BME280;4899;42.644;23.366;2022-10-15T10:22:14;94621.22;;;18.25;72.86
9721;BME280;4899;42.644;23.366;2022-10-15T10:24:41;94628.25;;;18.43;72.08
9721;BME280;4899;42.644;23.366;2022-10-15T10:27:18;94620.50;;;18.66;71.11
9721;BME280;4899;42.644;23.366;2022-10-15T10:29:52;94627.09;;;18.41;67.42
9721;BME280;4899;42.644;23.366;2022-10-15T10:32:21;94626.97;;;18.34;68.38
9721;BME280;4899;42.644;23.366;2022-10-15T10:34:49;94616.81;;;18.48;73.07
9721;BME280;4899;42.644;23.366;2022-10-15T10:37:16;94625.59;;;18.40;67.15
9721;BME280;4899;42.644;23.366;2022-10-15T10:39:43;94623.81;;;18.44;67.50
9721;BME280;4899;42.644;23.366;2022-10-15T10:42:35;94619.41;;;18.48;65.83
9721;BME280;4899;42.644;23.366;2022-10-15T10:45:15;94612.38;;;18.29;68.62
9721;BME280;4899;42.644;23.366;2022-10-15T10:47:43;94615.31;;;18.28;68.64
9721;BME280;4899;42.644;23.366;2022-10-15T10:50:27;94604.38;;;18.19;71.36
9721;BME280;4899;42.644;23.366;2022-10-15T10:52:55;94623.06;;;18.43;72.59
9721;BME280;4899;42.644;23.366;2022-10-15T10:55:31;94597.91;;;18.55;63.99
9721;BME280;4899;42.644;23.366;2022-10-15T10:58:00;94571.59;;;18.60;60.78
9721;BME280;4899;42.644;23.366;2022-10-15T11:00:34;94603.84;;;18.74;59.97
9721;BME280;4899;42.644;23.366;2022-10-15T11:03:05;94597.75;;;18.63;61.29
9721;BME280;4899;42.644;23.366;2022-10-15T11:05:33;94604.28;;;18.57;61.50
9721;BME280;4899;42.644;23.366;2022-10-15T11:08:09;94605.25;;;18.68;62.40
9721;BME280;4899;42.644;23.366;2022-10-15T11:10:44;94601.16;;;18.67;61.99
9721;BME280;4899;42.644;23.366;2022-10-15T11:13:33;94596.06;;;18.55;63.09
9721;BME280;4899;42.644;23.366;2022-10-15T11:16:10;94604.06;;;18.62;63.61
9721;BME280;4899;42.644;23.366;2022-10-15T11:19:00;94601.56;;;18.69;63.60
9721;BME280;4899;42.644;23.366;2022-10-15T11:21:39;94597.84;;;18.70;62.97
9721;BME280;4899;42.644;23.366;2022-10-15T11:24:11;94587.91;;;18.80;61.42
9721;BME280;4899;42.644;23.366;2022-10-15T11:26:50;94601.19;;;22.55;54.10
9721;BME280;4899;42.644;23.366;2022-10-15T11:29:24;94613.44;;;26.74;43.01
9721;BME280;4899;42.644;23.366;2022-10-15T11:32:02;94609.94;;;29.28;37.14
9721;BME280;4899;42.644;23.366;2022-10-15T11:34:43;94604.31;;;30.76;34.68
9721;BME280;4899;42.644;23.366;2022-10-15T11:37:24;94617.63;;;32.02;31.64
9721;BME280;4899;42.644;23.366;2022-10-15T11:40:11;94596.91;;;31.75;31.51
9721;BME280;4899;42.644;23.366;2022-10-15T11:42:45;94604.91;;;31.06;32.13
9721;BME280;4899;42.644;23.366;2022-10-15T11:45:37;94607.81;;;33.19;30.70
9721;BME280;4899;42.644;23.366;2022-10-15T11:48:12;94609.31;;;31.34;31.56
9721;BME280;4899;42.644;23.366;2022-10-15T11:50:46;94598.19;;;28.11;34.03
9721;BME280;4899;42.644;23.366;2022-10-15T11:53:49;94596.56;;;28.54;34.41
9721;BME280;4899;42.644;23.366;2022-10-15T11:56:19;94594.03;;;27.11;35.74
9721;BME280;4899;42.644;23.366;2022-10-15T11:58:50;94606.22;;;25.60;38.12
9721;BME280;4899;42.644;23.366;2022-10-15T12:01:20;94601.41;;;24.65;40.31
9721;BME280;4899;42.644;23.366;2022-10-15T12:03:54;94595.75;;;23.97;41.94
9721;BME280;4899;42.644;23.366;2022-10-15T12:06:25;94588.38;;;23.49;43.42
9721;BME280;4899;42.644;23.366;2022-10-15T12:08:54;94561.41;;;23.45;43.79
9721;BME280;4899;42.644;23.366;2022-10-15T12:11:43;94590.91;;;25.10;41.13
9721;BME280;4899;42.644;23.366;2022-10-15T12:14:19;94611.25;;;24.50;41.31
9721;BME280;4899;42.644;23.366;2022-10-15T12:16:54;94610.41;;;25.16;41.24
9721;BME280;4899;42.644;23.366;2022-10-15T12:19:28;94603.25;;;26.49;38.12
9721;BME280;4899;42.644;23.366;2022-10-15T12:22:03;94590.06;;;27.43;37.56
9721;BME280;4899;42.644;23.366;2022-10-15T12:24:52;94599.75;;;26.29;38.77
9721;BME280;4899;42.644;23.366;2022-10-15T12:27:29;94614.66;;;25.82;38.46
9721;BME280;4899;42.644;23.366;2022-10-15T12:30:22;94610.69;;;25.25;40.28
9721;BME280;4899;42.644;23.366;2022-10-15T12:32:52;94604.34;;;24.71;40.83
9721;BME280;4899;42.644;23.366;2022-10-15T12:35:37;94601.72;;;24.01;42.37
9721;BME280;4899;42.644;23.366;2022-10-15T12:38:11;94605.34;;;23.16;43.11
9721;BME280;4899;42.644;23.366;2022-10-15T12:40:43;94587.34;;;22.65;43.67
9721;BME280;4899;42.644;23.366;2022-10-15T12:43:13;94577.53;;;22.12;44.96
9721;BME280;4899;42.644;23.366;2022-10-15T12:45:49;94593.47;;;21.68;46.24
9721;BME280;4899;42.644;23.366;2022-10-15T12:48:30;94566.59;;;21.12;47.90
9721;BME280;4899;42.644;23.366;2022-10-15T12:54:41;94591.53;;;20.51;50.96
9721;BME280;4899;42.644;23.366;2022-10-15T13:00:33;94576.53;;;20.41;53.39
9721;BME280;4899;42.644;23.366;2022-10-15T13:03:32;94591.13;;;20.90;52.32
9721;BME280;4899;42.644;23.366;2022-10-15T13:06:14;94596.03;;;21.02;51.04
9721;BME280;4899;42.644;23.366;2022-10-15T13:08:49;94591.28;;;21.15;53.19
9721;BME280;4899;42.644;23.366;2022-10-15T13:11:21;94599.63;;;21.31;52.07
9721;BME280;4899;42.644;23.366;2022-10-15T13:13:51;94589.56;;;21.37;52.34
9721;BME280;4899;42.644;23.366;2022-10-15T13:16:21;94581.91;;;21.10;52.20
9721;BME280;4899;42.644;23.366;2022-10-15T13:18:50;94590.44;;;21.00;51.57
9721;BME280;4899;42.644;23.366;2022-10-15T13:21:17;94561.88;;;22.33;49.54
9721;BME280;4899;42.644;23.366;2022-10-15T13:23:45;94582.84;;;23.15;47.18
9721;BME280;4899;42.644;23.366;2022-10-15T13:26:18;94574.72;;;23.97;46.98
9721;BME280;4899;42.644;23.366;2022-10-15T13:28:47;94593.34;;;25.31;43.32
9721;BME280;4899;42.644;23.366;2022-10-15T13:31:19;94563.69;;;26.96;39.04
9721;BME280;4899;42.644;23.366;2022-10-15T13:33:49;94591.94;;;27.66;37.71
9721;BME280;4899;42.644;23.366;2022-10-15T13:36:20;94589.75;;;27.61;38.29
9721;BME280;4899;42.644;23.366;2022-10-15T13:38:53;94597.16;;;27.26;38.07
9721;BME280;4899;42.644;23.366;2022-10-15T13:41:25;94552.72;;;27.61;37.57
9721;BME280;4899;42.644;23.366;2022-10-15T13:43:53;94578.50;;;29.14;35.74
9721;BME280;4899;42.644;23.366;2022-10-15T13:46:23;94585.28;;;29.73;34.76
9721;BME280;4899;42.644;23.366;2022-10-15T13:48:55;94586.34;;;30.17;34.10
9721;BME280;4899;42.644;23.366;2022-10-15T13:51:32;94610.06;;;30.62;33.48
9721;BME280;4899;42.644;23.366;2022-10-15T13:54:01;94601.31;;;30.11;33.44
9721;BME280;4899;42.644;23.366;2022-10-15T13:56:31;94571.47;;;28.74;35.10
9721;BME280;4899;42.644;23.366;2022-10-15T13:58:59;94583.91;;;29.39;35.14
9721;BME280;4899;42.644;23.366;2022-10-15T14:01:27;94592.84;;;29.45;34.34
9721;BME280;4899;42.644;23.366;2022-10-15T14:03:56;94600.78;;;27.55;36.05
9721;BME280;4899;42.644;23.366;2022-10-15T14:06:25;94597.81;;;25.72;38.39
9721;BME280;4899;42.644;23.366;2022-10-15T14:08:55;94545.44;;;23.95;40.57
9721;BME280;4899;42.644;23.366;2022-10-15T14:11:22;94575.75;;;23.09;42.86
9721;BME280;4899;42.644;23.366;2022-10-15T14:13:51;94576.81;;;22.15;44.89
9721;BME280;4899;42.644;23.366;2022-10-15T14:16:21;94586.44;;;21.20;46.97
9721;BME280;4899;42.644;23.366;2022-10-15T14:18:51;94587.22;;;20.70;49.43
9721;BME280;4899;42.644;23.366;2022-10-15T14:21:21;94586.38;;;20.21;51.44
9721;BME280;4899;42.644;23.366;2022-10-15T14:24:01;94570.78;;;19.91;54.01
9721;BME280;4899;42.644;23.366;2022-10-15T14:26:30;94568.56;;;19.60;55.77
9721;BME280;4899;42.644;23.366;2022-10-15T14:29:00;94550.13;;;19.19;59.22
9721;BME280;4899;42.644;23.366;2022-10-15T14:31:35;94568.78;;;19.81;56.90
9721;BME280;4899;42.644;23.366;2022-10-15T14:34:03;94562.38;;;19.45;58.70
9721;BME280;4899;42.644;23.366;2022-10-15T14:36:39;94575.19;;;18.74;61.66
9721;BME280;4899;42.644;23.366;2022-10-15T14:39:26;94569.66;;;18.34;67.11
9721;BME280;4899;42.644;23.366;2022-10-15T14:41:55;94560.06;;;18.15;67.53
9721;BME280;4899;42.644;23.366;2022-10-15T14:44:25;94569.09;;;19.16;64.94
9721;BME280;4899;42.644;23.366;2022-10-15T14:46:58;94526.03;;;20.34;57.45
9721;BME280;4899;42.644;23.366;2022-10-15T14:49:28;94575.28;;;22.10;53.39
9721;BME280;4899;42.644;23.366;2022-10-15T14:51:59;94584.28;;;22.17;50.73
9721;BME280;4899;42.644;23.366;2022-10-15T14:54:34;94590.25;;;21.27;51.66
9721;BME280;4899;42.644;23.366;2022-10-15T14:57:02;94596.75;;;20.48;54.49
9721;BME280;4899;42.644;23.366;2022-10-15T14:59:35;94591.81;;;19.72;57.21
9721;BME280;4899;42.644;23.366;2022-10-15T15:02:03;94580.81;;;19.56;60.08
9721;BME280;4899;42.644;23.366;2022-10-15T15:04:38;94594.16;;;20.14;58.24
9721;BME280;4899;42.644;23.366;2022-10-15T15:07:11;94594.44;;;19.72;62.04